sensor_id;sensor_type;location;lat;lon;timestamp;P1;durP1;ratioP1;P2;durP2;ratioP2
69744;SDS011;57015;50.120;-5.168;2022-11-04T00:01:28;15.07;;;2.33;;
69744;SDS011;57015;50.120;-5.168;2022-11-04T00:03:54;16.67;;;2.10;;
69744;SDS011;57015;50.120;-5.168;2022-11-04T00:06:19;12.83;;;1.27;;
69744;SDS011;57015;50.120;-5.168;2022-11-04T00:08:49;9.40;;;0.97;;
69744;SDS011;57015;50.120;-5.168;2022-11-04T00:11:18;14.20;;;1.10;;
69744;SDS011;57015;50.120;-5.168;2022-11-04T00:14:03;10.48;;;0.65;;
69744;SDS011;57015;50.120;-5.168;2022-11-04T00:16:29;8.80;;;0.90;;
69744;SDS011;57015;50.120;-5.168;2022-11-04T00:19:13;5.77;;;0.90;;
69744;SDS011;57015;50.120;-5.168;2022-11-04T00:21:39;9.88;;;1.15;;
69744;SDS011;57015;50.120;-5.168;2022-11-04T00:24:23;9.15;;;0.90;;
69744;SDS011;57015;50.120;-5.168;2022-11-04T00:27:10;5.93;;;0.70;;
69744;SDS011;57015;50.120;-5.168;2022-11-04T00:29:58;5.68;;;0.82;;
69744;SDS011;57015;50.120;-5.168;2022-11-04T00:32:23;7.05;;;1.00;;
69744;SDS011;57015;50.120;-5.168;2022-11-04T00:35:08;4.75;;;0.70;;
69744;SDS011;57015;50.120;-5.168;2022-11-04T00:37:35;9.45;;;0.75;;
69744;SDS011;57015;50.120;-5.168;2022-11-04T00:40:01;8.82;;;0.77;;
69744;SDS011;57015;50.120;-5.168;2022-11-04T00:42:27;8.48;;;0.50;;
69744;SDS011;57015;50.120;-5.168;2022-11-04T00:44:52;7.47;;;0.75;;
69744;SDS011;57015;50.120;-5.168;2022-11-04T00:47:18;5.03;;;0.40;;
69744;SDS011;57015;50.120;-5.168;2022-11-04T00:49:43;5.13;;;0.53;;
69744;SDS011;57015;50.120;-5.168;2022-11-04T00:52:08;6.83;;;0.50;;
69744;SDS011;57015;50.120;-5.168;2022-11-04T00:54:34;6.47;;;0.50;;
69744;SDS011;57015;50.120;-5.168;2022-11-04T00:56:59;5.27;;;0.80;;
69744;SDS011;57015;50.120;-5.168;2022-11-04T00:59:25;9.73;;;0.87;;
69744;SDS011;57015;50.120;-5.168;2022-11-04T01:01:50;7.77;;;0.83;;
69744;SDS011;57015;50.120;-5.168;2022-11-04T01:04:15;5.30;;;0.65;;
69744;SDS011;57015;50.120;-5.168;2022-11-04T01:06:41;5.67;;;0.40;;
69744;SDS011;57015;50.120;-5.168;2022-11-04T01:09:06;3.40;;;0.77;;
69744;SDS011;57015;50.120;-5.168;2022-11-04T01:11:32;6.28;;;0.60;;
69744;SDS011;57015;50.120;-5.168;2022-11-04T01:13:58;8.13;;;0.73;;
69744;SDS011;57015;50.120;-5.168;2022-11-04T01:16:24;6.55;;;0.43;;
69744;SDS011;57015;50.120;-5.168;2022-11-04T01:18:51;12.27;;;2.10;;
69744;SDS011;57015;50.120;-5.168;2022-11-04T01:21:16;6.43;;;0.40;;
69744;SDS011;57015;50.120;-5.168;2022-11-04T01:23:42;7.20;;;1.07;;
69744;SDS011;57015;50.120;-5.168;2022-11-04T01:26:10;5.35;;;0.60;;
69744;SDS011;57015;50.120;-5.168;2022-11-04T01:28:39;10.77;;;0.93;;
69744;SDS011;57015;50.120;-5.168;2022-11-04T01:31:05;9.88;;;1.10;;
69744;SDS011;57015;50.120;-5.168;2022-11-04T01:33:35;7.15;;;0.73;;
69744;SDS011;57015;50.120;-5.168;2022-11-04T01:36:01;7.50;;;0.43;;
69744;SDS011;57015;50.120;-5.168;2022-11-04T01:38:28;6.85;;;0.68;;
69744;SDS011;57015;50.120;-5.168;2022-11-04T01:40:53;8.13;;;0.70;;
69744;SDS011;57015;50.120;-5.168;2022-11-04T01:43:19;5.63;;;0.83;;
69744;SDS011;57015;50.120;-5.168;2022-11-04T01:45:47;5.95;;;0.40;;
69744;SDS011;57015;50.120;-5.168;2022-11-04T01:48:18;9.23;;;1.02;;
69744;SDS011;57015;50.120;-5.168;2022-11-04T01:50:46;5.33;;;0.80;;
69744;SDS011;57015;50.120;-5.168;2022-11-04T01:53:17;10.38;;;1.05;;
69744;SDS011;57015;50.120;-5.168;2022-11-04T01:55:47;8.52;;;1.40;;
69744;SDS011;57015;50.120;-5.168;2022-11-04T01:58:16;9.48;;;1.00;;
69744;SDS011;57015;50.120;-5.168;2022-11-04T02:00:42;6.95;;;0.80;;
69744;SDS011;57015;50.120;-5.168;2022-11-04T02:03:10;11.00;;;0.73;;
69744;SDS011;57015;50.120;-5.168;2022-11-04T02:05:38;7.35;;;0.50;;
69744;SDS011;57015;50.120;-5.168;2022-11-04T02:08:04;8.73;;;1.10;;
69744;SDS011;57015;50.120;-5.168;2022-11-04T02:10:31;8.48;;;1.00;;
69744;SDS011;57015;50.120;-5.168;2022-11-04T02:12:57;6.70;;;1.25;;
69744;SDS011;57015;50.120;-5.168;2022-11-04T02:24:21;8.23;;;0.75;;
69744;SDS011;57015;50.120;-5.168;2022-11-04T02:37:33;10.07;;;0.83;;
69744;SDS011;57015;50.120;-5.168;2022-11-04T02:43:44;14.27;;;1.73;;
69744;SDS011;57015;50.120;-5.168;2022-11-04T02:45:48;12.23;;;0.82;;
69744;SDS011;57015;50.120;-5.168;2022-11-04T02:51:24;10.90;;;1.03;;
69744;SDS011;57015;50.120;-5.168;2022-11-04T02:56:44;11.63;;;1.10;;
69744;SDS011;57015;50.120;-5.168;2022-11-04T02:59:20;10.07;;;1.05;;
69744;SDS011;57015;50.120;-5.168;2022-11-04T03:01:49;4.47;;;0.43;;
69744;SDS011;57015;50.120;-5.168;2022-11-04T03:04:16;6.10;;;0.60;;
69744;SDS011;57015;50.120;-5.168;2022-11-04T03:06:46;7.00;;;0.73;;
69744;SDS011;57015;50.120;-5.168;2022-11-04T03:09:13;13.32;;;1.10;;
69744;SDS011;57015;50.120;-5.168;2022-11-04T03:11:40;10.45;;;1.08;;
69744;SDS011;57015;50.120;-5.168;2022-11-04T03:14:15;8.23;;;0.50;;
69744;SDS011;57015;50.120;-5.168;2022-11-04T03:16:50;8.10;;;0.70;;
69744;SDS011;57015;50.120;-5.168;2022-11-04T03:24:32;8.38;;;1.00;;
69744;SDS011;57015;50.120;-5.168;2022-11-04T03:26:58;6.47;;;0.97;;
69744;SDS011;57015;50.120;-5.168;2022-11-04T03:29:33;5.55;;;0.82;;
69744;SDS011;57015;50.120;-5.168;2022-11-04T03:32:04;8.63;;;1.00;;
69744;SDS011;57015;50.120;-5.168;2022-11-04T03:34:37;5.20;;;0.57;;
69744;SDS011;57015;50.120;-5.168;2022-11-04T03:37:03;7.65;;;0.60;;
69744;SDS011;57015;50.120;-5.168;2022-11-04T03:39:28;10.50;;;0.60;;
69744;SDS011;57015;50.120;-5.168;2022-11-04T03:41:55;10.97;;;1.00;;
69744;SDS011;57015;50.120;-5.168;2022-11-04T03:44:22;6.88;;;0.47;;
69744;SDS011;57015;50.120;-5.168;2022-11-04T03:46:47;3.50;;;0.60;;
69744;SDS011;57015;50.120;-5.168;2022-11-04T03:49:15;7.30;;;0.85;;
69744;SDS011;57015;50.120;-5.168;2022-11-04T03:51:41;12.27;;;0.93;;
69744;SDS011;57015;50.120;-5.168;2022-11-04T03:54:06;6.33;;;1.20;;
69744;SDS011;57015;50.120;-5.168;2022-11-04T04:02:03;15.45;;;1.48;;
69744;SDS011;57015;50.120;-5.168;2022-11-04T04:04:34;12.80;;;2.17;;
69744;SDS011;57015;50.120;-5.168;2022-11-04T04:07:15;9.57;;;1.10;;
69744;SDS011;57015;50.120;-5.168;2022-11-04T04:09:44;14.45;;;1.55;;
69744;SDS011;57015;50.120;-5.168;2022-11-04T04:14:52;10.25;;;1.98;;
69744;SDS011;57015;50.120;-5.168;2022-11-04T04:17:26;11.43;;;1.45;;
69744;SDS011;57015;50.120;-5.168;2022-11-04T04:20:19;16.75;;;1.70;;
69744;SDS011;57015;50.120;-5.168;2022-11-04T04:22:47;11.98;;;1.60;;
69744;SDS011;57015;50.120;-5.168;2022-11-04T04:25:15;16.17;;;1.53;;
69744;SDS011;57015;50.120;-5.168;2022-11-04T04:27:59;8.68;;;1.60;;
69744;SDS011;57015;50.120;-5.168;2022-11-04T04:30:25;12.65;;;1.50;;
69744;SDS011;57015;50.120;-5.168;2022-11-04T04:35:26;10.20;;;1.10;;
69744;SDS011;57015;50.120;-5.168;2022-11-04T04:38:14;12.15;;;1.23;;
69744;SDS011;57015;50.120;-5.168;2022-11-04T04:41:20;12.35;;;1.25;;
69744;SDS011;57015;50.120;-5.168;2022-11-04T04:47:08;16.73;;;1.23;;
69744;SDS011;57015;50.120;-5.168;2022-11-04T04:49:35;15.07;;;1.50;;
69744;SDS011;57015;50.120;-5.168;2022-11-04T04:52:01;9.47;;;1.27;;
69744;SDS011;57015;50.120;-5.168;2022-11-04T04:54:27;8.85;;;1.10;;
69744;SDS011;57015;50.120;-5.168;2022-11-04T04:56:52;11.90;;;2.23;;
69744;SDS011;57015;50.120;-5.168;2022-11-04T04:59:18;6.20;;;1.10;;
69744;SDS011;57015;50.120;-5.168;2022-11-04T05:01:43;6.40;;;0.80;;
69744;SDS011;57015;50.120;-5.168;2022-11-04T05:04:09;8.67;;;1.20;;
69744;SDS011;57015;50.120;-5.168;2022-11-04T05:06:34;9.30;;;0.97;;
69744;SDS011;57015;50.120;-5.168;2022-11-04T05:08:59;6.63;;;0.70;;
69744;SDS011;57015;50.120;-5.168;2022-11-04T05:11:25;7.97;;;0.70;;
69744;SDS011;57015;50.120;-5.168;2022-11-04T05:13:50;6.95;;;0.52;;
69744;SDS011;57015;50.120;-5.168;2022-11-04T05:16:16;6.33;;;0.70;;
69744;SDS011;57015;50.120;-5.168;2022-11-04T05:18:41;6.00;;;0.83;;
69744;SDS011;57015;50.120;-5.168;2022-11-04T05:21:08;9.00;;;1.10;;
69744;SDS011;57015;50.120;-5.168;2022-11-04T05:23:36;8.82;;;1.00;;
69744;SDS011;57015;50.120;-5.168;2022-11-04T05:26:01;8.80;;;0.87;;
69744;SDS011;57015;50.120;-5.168;2022-11-04T05:28:27;6.07;;;0.90;;
69744;SDS011;57015;50.120;-5.168;2022-11-04T05:30:53;7.87;;;1.10;;
69744;SDS011;57015;50.120;-5.168;2022-11-04T05:33:18;7.57;;;1.10;;
69744;SDS011;57015;50.120;-5.168;2022-11-04T05:35:44;9.48;;;1.13;;
69744;SDS011;57015;50.120;-5.168;2022-11-04T05:38:09;8.10;;;1.13;;
69744;SDS011;57015;50.120;-5.168;2022-11-04T05:40:35;6.03;;;0.90;;
69744;SDS011;57015;50.120;-5.168;2022-11-04T05:43:00;9.18;;;1.00;;
69744;SDS011;57015;50.120;-5.168;2022-11-04T05:45:26;15.30;;;1.63;;
69744;SDS011;57015;50.120;-5.168;2022-11-04T05:50:28;9.57;;;1.70;;
69744;SDS011;57015;50.120;-5.168;2022-11-04T05:52:55;6.43;;;0.60;;
69744;SDS011;57015;50.120;-5.168;2022-11-04T05:55:22;13.68;;;1.58;;
69744;SDS011;57015;50.120;-5.168;2022-11-04T05:57:47;17.93;;;1.27;;
69744;SDS011;57015;50.120;-5.168;2022-11-04T06:00:13;13.13;;;1.92;;
69744;SDS011;57015;50.120;-5.168;2022-11-04T06:02:38;9.63;;;1.33;;
69744;SDS011;57015;50.120;-5.168;2022-11-04T06:05:04;16.27;;;2.33;;
69744;SDS011;57015;50.120;-5.168;2022-11-04T06:07:30;9.25;;;1.63;;
69744;SDS011;57015;50.120;-5.168;2022-11-04T06:09:55;11.00;;;1.23;;
69744;SDS011;57015;50.120;-5.168;2022-11-04T06:12:21;10.50;;;1.47;;
69744;SDS011;57015;50.120;-5.168;2022-11-04T06:14:46;14.02;;;1.15;;
69744;SDS011;57015;50.120;-5.168;2022-11-04T06:17:15;8.57;;;1.48;;
69744;SDS011;57015;50.120;-5.168;2022-11-04T06:19:42;13.05;;;1.42;;
69744;SDS011;57015;50.120;-5.168;2022-11-04T06:22:11;9.47;;;1.30;;
69744;SDS011;57015;50.120;-5.168;2022-11-04T06:24:38;10.80;;;1.70;;
69744;SDS011;57015;50.120;-5.168;2022-11-04T06:27:04;10.90;;;1.40;;
69744;SDS011;57015;50.120;-5.168;2022-11-04T06:29:29;11.80;;;1.17;;
69744;SDS011;57015;50.120;-5.168;2022-11-04T06:31:55;13.67;;;1.77;;
69744;SDS011;57015;50.120;-5.168;2022-11-04T06:34:20;13.17;;;1.40;;
69744;SDS011;57015;50.120;-5.168;2022-11-04T06:36:47;11.77;;;1.70;;
69744;SDS011;57015;50.120;-5.168;2022-11-04T06:39:13;10.93;;;1.67;;
69744;SDS011;57015;50.120;-5.168;2022-11-04T06:41:38;12.77;;;2.03;;
69744;SDS011;57015;50.120;-5.168;2022-11-04T06:44:04;12.87;;;2.13;;
69744;SDS011;57015;50.120;-5.168;2022-11-04T06:46:30;8.63;;;1.63;;
69744;SDS011;57015;50.120;-5.168;2022-11-04T06:48:59;11.45;;;1.30;;
69744;SDS011;57015;50.120;-5.168;2022-11-04T06:51:24;10.87;;;2.23;;
69744;SDS011;57015;50.120;-5.168;2022-11-04T06:53:50;9.07;;;1.50;;
69744;SDS011;57015;50.120;-5.168;2022-11-04T06:56:16;8.00;;;1.87;;
69744;SDS011;57015;50.120;-5.168;2022-11-04T06:58:41;8.30;;;1.03;;
69744;SDS011;57015;50.120;-5.168;2022-11-04T07:01:07;9.97;;;1.17;;
69744;SDS011;57015;50.120;-5.168;2022-11-04T07:03:32;9.70;;;1.05;;
69744;SDS011;57015;50.120;-5.168;2022-11-04T07:05:58;9.97;;;1.57;;
69744;SDS011;57015;50.120;-5.168;2022-11-04T07:08:23;12.43;;;1.50;;
69744;SDS011;57015;50.120;-5.168;2022-11-04T07:10:49;11.00;;;1.63;;
69744;SDS011;57015;50.120;-5.168;2022-11-04T07:13:14;11.57;;;1.40;;
69744;SDS011;57015;50.120;-5.168;2022-11-04T07:15:41;6.70;;;1.10;;
69744;SDS011;57015;50.120;-5.168;2022-11-04T07:18:07;7.53;;;1.00;;
69744;SDS011;57015;50.120;-5.168;2022-11-04T07:20:32;10.30;;;1.17;;
69744;SDS011;57015;50.120;-5.168;2022-11-04T07:22:58;7.50;;;1.38;;
69744;SDS011;57015;50.120;-5.168;2022-11-04T07:25:24;8.83;;;1.07;;
69744;SDS011;57015;50.120;-5.168;2022-11-04T07:27:49;8.18;;;1.25;;
69744;SDS011;57015;50.120;-5.168;2022-11-04T07:30:15;7.93;;;0.80;;
69744;SDS011;57015;50.120;-5.168;2022-11-04T07:32:40;5.30;;;1.00;;
69744;SDS011;57015;50.120;-5.168;2022-11-04T07:35:06;5.00;;;0.70;;
69744;SDS011;57015;50.120;-5.168;2022-11-04T07:37:31;7.83;;;0.87;;
69744;SDS011;57015;50.120;-5.168;2022-11-04T07:39:57;6.53;;;0.90;;
69744;SDS011;57015;50.120;-5.168;2022-11-04T07:42:22;10.57;;;0.90;;
69744;SDS011;57015;50.120;-5.168;2022-11-04T07:44:48;5.67;;;1.70;;
69744;SDS011;57015;50.120;-5.168;2022-11-04T07:47:13;8.95;;;0.80;;
69744;SDS011;57015;50.120;-5.168;2022-11-04T07:49:38;7.53;;;1.73;;
69744;SDS011;57015;50.120;-5.168;2022-11-04T07:52:04;6.90;;;1.07;;
69744;SDS011;57015;50.120;-5.168;2022-11-04T07:54:31;8.67;;;2.37;;
69744;SDS011;57015;50.120;-5.168;2022-11-04T07:56:56;8.80;;;0.80;;
69744;SDS011;57015;50.120;-5.168;2022-11-04T07:59:22;9.25;;;1.00;;
69744;SDS011;57015;50.120;-5.168;2022-11-04T08:01:47;5.55;;;0.73;;
69744;SDS011;57015;50.120;-5.168;2022-11-04T08:04:12;5.80;;;1.00;;
69744;SDS011;57015;50.120;-5.168;2022-11-04T08:06:38;8.70;;;1.40;;
69744;SDS011;57015;50.120;-5.168;2022-11-04T08:09:03;6.33;;;0.87;;
69744;SDS011;57015;50.120;-5.168;2022-11-04T08:11:29;7.10;;;1.00;;
69744;SDS011;57015;50.120;-5.168;2022-11-04T08:13:54;8.30;;;0.83;;
69744;SDS011;57015;50.120;-5.168;2022-11-04T08:16:21;7.93;;;1.00;;
69744;SDS011;57015;50.120;-5.168;2022-11-04T08:18:47;7.85;;;1.60;;
69744;SDS011;57015;50.120;-5.168;2022-11-04T08:21:13;10.57;;;1.13;;
69744;SDS011;57015;50.120;-5.168;2022-11-04T08:23:40;6.70;;;0.85;;
69744;SDS011;57015;50.120;-5.168;2022-11-04T08:26:09;9.27;;;1.07;;
69744;SDS011;57015;50.120;-5.168;2022-11-04T08:28:36;7.88;;;0.90;;
69744;SDS011;57015;50.120;-5.168;2022-11-04T08:31:03;11.23;;;1.02;;
69744;SDS011;57015;50.120;-5.168;2022-11-04T08:33:33;5.95;;;1.08;;
69744;SDS011;57015;50.120;-5.168;2022-11-04T08:35:59;9.03;;;1.00;;
69744;SDS011;57015;50.120;-5.168;2022-11-04T08:38:27;9.90;;;1.00;;
69744;SDS011;57015;50.120;-5.168;2022-11-04T08:40:57;8.57;;;1.00;;
69744;SDS011;57015;50.120;-5.168;2022-11-04T08:43:23;5.18;;;0.73;;
69744;SDS011;57015;50.120;-5.168;2022-11-04T08:45:49;12.00;;;1.00;;
69744;SDS011;57015;50.120;-5.168;2022-11-04T08:48:15;7.27;;;0.87;;
69744;SDS011;57015;50.120;-5.168;2022-11-04T08:50:41;7.57;;;0.77;;
69744;SDS011;57015;50.120;-5.168;2022-11-04T08:53:07;9.27;;;0.80;;
69744;SDS011;57015;50.120;-5.168;2022-11-04T08:55:33;8.60;;;1.45;;
69744;SDS011;57015;50.120;-5.168;2022-11-04T08:57:59;7.68;;;0.95;;
69744;SDS011;57015;50.120;-5.168;2022-11-04T09:00:25;9.25;;;1.65;;
69744;SDS011;57015;50.120;-5.168;2022-11-04T09:02:51;8.10;;;1.02;;
69744;SDS011;57015;50.120;-5.168;2022-11-04T09:05:16;7.23;;;1.20;;
69744;SDS011;57015;50.120;-5.168;2022-11-04T09:07:43;8.93;;;0.90;;
69744;SDS011;57015;50.120;-5.168;2022-11-04T09:10:09;7.97;;;0.87;;
69744;SDS011;57015;50.120;-5.168;2022-11-04T09:12:35;8.43;;;0.80;;
69744;SDS011;57015;50.120;-5.168;2022-11-04T09:15:01;12.20;;;1.10;;
69744;SDS011;57015;50.120;-5.168;2022-11-04T09:17:27;7.18;;;0.63;;
69744;SDS011;57015;50.120;-5.168;2022-11-04T09:19:53;8.50;;;0.98;;
69744;SDS011;57015;50.120;-5.168;2022-11-04T09:22:18;7.93;;;0.70;;
69744;SDS011;57015;50.120;-5.168;2022-11-04T09:24:44;10.27;;;0.87;;
69744;SDS011;57015;50.120;-5.168;2022-11-04T09:27:09;9.77;;;1.13;;
69744;SDS011;57015;50.120;-5.168;2022-11-04T09:29:35;9.07;;;0.80;;
69744;SDS011;57015;50.120;-5.168;2022-11-04T09:32:01;7.55;;;0.77;;
69744;SDS011;57015;50.120;-5.168;2022-11-04T09:34:27;8.55;;;1.02;;
69744;SDS011;57015;50.120;-5.168;2022-11-04T09:36:56;11.60;;;1.17;;
69744;SDS011;57015;50.120;-5.168;2022-11-04T09:39:22;9.38;;;0.70;;
69744;SDS011;57015;50.120;-5.168;2022-11-04T09:44:21;7.35;;;0.70;;
69744;SDS011;57015;50.120;-5.168;2022-11-04T09:46:49;9.05;;;0.90;;
69744;SDS011;57015;50.120;-5.168;2022-11-04T09:49:16;9.43;;;0.53;;
69744;SDS011;57015;50.120;-5.168;2022-11-04T09:51:42;9.80;;;0.80;;
69744;SDS011;57015;50.120;-5.168;2022-11-04T09:54:20;5.97;;;0.60;;
69744;SDS011;57015;50.120;-5.168;2022-11-04T09:56:53;7.03;;;0.80;;
69744;SDS011;57015;50.120;-5.168;2022-11-04T09:59:21;6.53;;;0.63;;
69744;SDS011;57015;50.120;-5.168;2022-11-04T10:07:02;7.60;;;0.90;;
69744;SDS011;57015;50.120;-5.168;2022-11-04T10:22:50;8.97;;;1.20;;
69744;SDS011;57015;50.120;-5.168;2022-11-04T10:25:22;6.53;;;1.17;;
69744;SDS011;57015;50.120;-5.168;2022-11-04T10:27:50;5.27;;;0.63;;
69744;SDS011;57015;50.120;-5.168;2022-11-04T10:30:22;5.93;;;0.95;;
69744;SDS011;57015;50.120;-5.168;2022-11-04T10:38:12;4.88;;;0.40;;
69744;SDS011;57015;50.120;-5.168;2022-11-04T10:40:48;4.15;;;0.43;;
69744;SDS011;57015;50.120;-5.168;2022-11-04T10:43:34;5.72;;;0.70;;
69744;SDS011;57015;50.120;-5.168;2022-11-04T10:51:50;5.15;;;0.40;;
69744;SDS011;57015;50.120;-5.168;2022-11-04T10:54:16;6.18;;;0.57;;
69744;SDS011;57015;50.120;-5.168;2022-11-04T10:56:43;4.90;;;0.40;;
69744;SDS011;57015;50.120;-5.168;2022-11-04T11:01:48;5.25;;;0.70;;
69744;SDS011;57015;50.120;-5.168;2022-11-04T11:04:25;5.03;;;0.70;;
69744;SDS011;57015;50.120;-5.168;2022-11-04T11:06:53;2.80;;;0.30;;
69744;SDS011;57015;50.120;-5.168;2022-11-04T11:11:52;3.78;;;0.30;;
69744;SDS011;57015;50.120;-5.168;2022-11-04T11:16:56;3.60;;;0.25;;
69744;SDS011;57015;50.120;-5.168;2022-11-04T11:19:52;4.00;;;0.93;;
69744;SDS011;57015;50.120;-5.168;2022-11-04T11:22:31;3.38;;;0.40;;
69744;SDS011;57015;50.120;-5.168;2022-11-04T11:27:53;5.47;;;0.30;;
69744;SDS011;57015;50.120;-5.168;2022-11-04T11:30:34;6.45;;;0.73;;
69744;SDS011;57015;50.120;-5.168;2022-11-04T11:35:57;5.00;;;0.38;;
69744;SDS011;57015;50.120;-5.168;2022-11-04T11:38:26;5.30;;;0.22;;
69744;SDS011;57015;50.120;-5.168;2022-11-04T11:40:53;4.95;;;0.40;;
69744;SDS011;57015;50.120;-5.168;2022-11-04T11:43:35;4.18;;;0.20;;
69744;SDS011;57015;50.120;-5.168;2022-11-04T11:46:03;2.33;;;0.20;;
69744;SDS011;57015;50.120;-5.168;2022-11-04T11:50:58;1.75;;;0.25;;
69744;SDS011;57015;50.120;-5.168;2022-11-04T11:53:25;3.00;;;0.27;;
69744;SDS011;57015;50.120;-5.168;2022-11-04T11:58:51;2.95;;;0.63;;
69744;SDS011;57015;50.120;-5.168;2022-11-04T12:01:31;2.55;;;0.28;;
69744;SDS011;57015;50.120;-5.168;2022-11-04T12:03:59;7.35;;;0.40;;
69744;SDS011;57015;50.120;-5.168;2022-11-04T12:28:21;2.60;;;0.20;;
69744;SDS011;57015;50.120;-5.168;2022-11-04T12:33:38;3.70;;;0.15;;
69744;SDS011;57015;50.120;-5.168;2022-11-04T12:36:15;3.72;;;0.40;;
69744;SDS011;57015;50.120;-5.168;2022-11-04T12:41:26;1.77;;;0.10;;
69744;SDS011;57015;50.120;-5.168;2022-11-04T12:49:12;4.28;;;0.20;;
69744;SDS011;57015;50.120;-5.168;2022-11-04T13:02:24;3.72;;;0.30;;
69744;SDS011;57015;50.120;-5.168;2022-11-04T13:07:30;4.38;;;0.20;;
69744;SDS011;57015;50.120;-5.168;2022-11-04T13:09:59;2.15;;;0.17;;
69744;SDS011;57015;50.120;-5.168;2022-11-04T13:12:31;5.50;;;0.50;;
69744;SDS011;57015;50.120;-5.168;2022-11-04T13:15:16;2.55;;;0.40;;
69744;SDS011;57015;50.120;-5.168;2022-11-04T13:17:44;3.60;;;0.28;;
69744;SDS011;57015;50.120;-5.168;2022-11-04T13:22:40;1.98;;;0.28;;
69744;SDS011;57015;50.120;-5.168;2022-11-04T13:27:42;5.30;;;0.95;;
69744;SDS011;57015;50.120;-5.168;2022-11-04T13:30:24;1.85;;;0.20;;
69744;SDS011;57015;50.120;-5.168;2022-11-04T13:38:56;1.80;;;0.23;;
69744;SDS011;57015;50.120;-5.168;2022-11-04T13:41:49;1.63;;;0.10;;
69744;SDS011;57015;50.120;-5.168;2022-11-04T13:44:23;4.07;;;0.30;;
69744;SDS011;57015;50.120;-5.168;2022-11-04T13:46:51;2.97;;;0.30;;
69744;SDS011;57015;50.120;-5.168;2022-11-04T13:49:26;1.63;;;0.20;;
69744;SDS011;57015;50.120;-5.168;2022-11-04T13:59:36;2.40;;;0.10;;
69744;SDS011;57015;50.120;-5.168;2022-11-04T14:04:43;3.57;;;0.20;;
69744;SDS011;57015;50.120;-5.168;2022-11-04T14:07:10;2.50;;;0.40;;
69744;SDS011;57015;50.120;-5.168;2022-11-04T14:09:49;0.73;;;0.20;;
69744;SDS011;57015;50.120;-5.168;2022-11-04T14:12:17;2.78;;;0.20;;
69744;SDS011;57015;50.120;-5.168;2022-11-04T14:14:51;2.47;;;0.25;;
69744;SDS011;57015;50.120;-5.168;2022-11-04T14:23:03;4.45;;;0.35;;
69744;SDS011;57015;50.120;-5.168;2022-11-04T14:30:48;0.90;;;0.20;;
69744;SDS011;57015;50.120;-5.168;2022-11-04T14:36:14;1.00;;;0.20;;
69744;SDS011;57015;50.120;-5.168;2022-11-04T14:38:41;9.13;;;0.43;;
69744;SDS011;57015;50.120;-5.168;2022-11-04T14:43:57;2.00;;;0.23;;
69744;SDS011;57015;50.120;-5.168;2022-11-04T14:46:26;3.78;;;0.30;;
69744;SDS011;57015;50.120;-5.168;2022-11-04T14:48:54;4.18;;;0.30;;
69744;SDS011;57015;50.120;-5.168;2022-11-04T14:51:32;2.08;;;0.20;;
69744;SDS011;57015;50.120;-5.168;2022-11-04T14:56:30;2.63;;;0.30;;
69744;SDS011;57015;50.120;-5.168;2022-11-04T15:01:38;3.83;;;0.25;;
69744;SDS011;57015;50.120;-5.168;2022-11-04T15:06:52;8.10;;;0.50;;
69744;SDS011;57015;50.120;-5.168;2022-11-04T15:09:19;9.63;;;0.70;;
69744;SDS011;57015;50.120;-5.168;2022-11-04T15:12:02;6.63;;;0.40;;
69744;SDS011;57015;50.120;-5.168;2022-11-04T15:14:59;11.13;;;0.63;;
69744;SDS011;57015;50.120;-5.168;2022-11-04T15:17:25;4.90;;;0.57;;
69744;SDS011;57015;50.120;-5.168;2022-11-04T15:19:56;2.92;;;0.43;;
69744;SDS011;57015;50.120;-5.168;2022-11-04T15:22:23;4.55;;;0.55;;
69744;SDS011;57015;50.120;-5.168;2022-11-04T15:24:49;4.50;;;0.50;;
69744;SDS011;57015;50.120;-5.168;2022-11-04T15:27:18;3.72;;;0.38;;
69744;SDS011;57015;50.120;-5.168;2022-11-04T15:30:00;2.67;;;0.30;;
69744;SDS011;57015;50.120;-5.168;2022-11-04T15:32:31;15.82;;;1.25;;
69744;SDS011;57015;50.120;-5.168;2022-11-04T15:34:56;11.85;;;1.13;;
69744;SDS011;57015;50.120;-5.168;2022-11-04T15:37:22;8.20;;;0.60;;
69744;SDS011;57015;50.120;-5.168;2022-11-04T15:39:50;8.88;;;0.80;;
69744;SDS011;57015;50.120;-5.168;2022-11-04T15:42:21;18.58;;;1.25;;
69744;SDS011;57015;50.120;-5.168;2022-11-04T15:45:26;6.80;;;0.60;;
69744;SDS011;57015;50.120;-5.168;2022-11-04T15:50:53;6.95;;;0.68;;
69744;SDS011;57015;50.120;-5.168;2022-11-04T15:53:26;12.13;;;0.90;;
69744;SDS011;57015;50.120;-5.168;2022-11-04T15:55:51;4.73;;;0.43;;
69744;SDS011;57015;50.120;-5.168;2022-11-04T15:58:17;4.35;;;0.43;;
69744;SDS011;57015;50.120;-5.168;2022-11-04T16:00:49;4.17;;;0.40;;
69744;SDS011;57015;50.120;-5.168;2022-11-04T16:03:16;4.13;;;0.43;;
69744;SDS011;57015;50.120;-5.168;2022-11-04T16:05:43;6.07;;;0.70;;
69744;SDS011;57015;50.120;-5.168;2022-11-04T16:08:28;3.97;;;0.50;;
69744;SDS011;57015;50.120;-5.168;2022-11-04T16:11:11;6.65;;;0.70;;
69744;SDS011;57015;50.120;-5.168;2022-11-04T16:13:39;5.90;;;0.77;;
69744;SDS011;57015;50.120;-5.168;2022-11-04T16:16:06;6.47;;;0.50;;
69744;SDS011;57015;50.120;-5.168;2022-11-04T16:18:41;5.57;;;0.75;;
69744;SDS011;57015;50.120;-5.168;2022-11-04T16:21:28;3.67;;;0.60;;
69744;SDS011;57015;50.120;-5.168;2022-11-04T16:26:26;2.92;;;0.52;;
69744;SDS011;57015;50.120;-5.168;2022-11-04T16:28:54;4.30;;;0.50;;
69744;SDS011;57015;50.120;-5.168;2022-11-04T16:31:26;9.43;;;1.10;;
69744;SDS011;57015;50.120;-5.168;2022-11-04T16:33:53;10.57;;;0.90;;
69744;SDS011;57015;50.120;-5.168;2022-11-04T16:36:19;6.15;;;0.80;;
69744;SDS011;57015;50.120;-5.168;2022-11-04T16:38:54;6.10;;;1.27;;
69744;SDS011;57015;50.120;-5.168;2022-11-04T16:41:22;4.03;;;0.45;;
69744;SDS011;57015;50.120;-5.168;2022-11-04T16:43:48;3.72;;;0.40;;
69744;SDS011;57015;50.120;-5.168;2022-11-04T16:46:14;5.83;;;0.73;;
69744;SDS011;57015;50.120;-5.168;2022-11-04T16:48:40;5.85;;;0.60;;
69744;SDS011;57015;50.120;-5.168;2022-11-04T16:51:05;6.80;;;0.73;;
69744;SDS011;57015;50.120;-5.168;2022-11-04T16:53:31;6.82;;;1.05;;
69744;SDS011;57015;50.120;-5.168;2022-11-04T16:55:56;7.32;;;1.52;;
69744;SDS011;57015;50.120;-5.168;2022-11-04T16:58:22;5.67;;;0.90;;
69744;SDS011;57015;50.120;-5.168;2022-11-04T17:00:55;7.23;;;1.10;;
69744;SDS011;57015;50.120;-5.168;2022-11-04T17:03:23;6.95;;;1.58;;
69744;SDS011;57015;50.120;-5.168;2022-11-04T17:05:52;5.63;;;1.00;;
69744;SDS011;57015;50.120;-5.168;2022-11-04T17:08:20;6.50;;;1.00;;
69744;SDS011;57015;50.120;-5.168;2022-11-04T17:10:46;6.60;;;1.00;;
69744;SDS011;57015;50.120;-5.168;2022-11-04T17:13:12;3.88;;;1.30;;
69744;SDS011;57015;50.120;-5.168;2022-11-04T17:15:38;7.27;;;1.20;;
69744;SDS011;57015;50.120;-5.168;2022-11-04T17:18:03;5.50;;;1.50;;
69744;SDS011;57015;50.120;-5.168;2022-11-04T17:20:29;6.65;;;1.55;;
69744;SDS011;57015;50.120;-5.168;2022-11-04T17:22:56;7.77;;;1.97;;
69744;SDS011;57015;50.120;-5.168;2022-11-04T17:25:25;5.93;;;1.65;;
69744;SDS011;57015;50.120;-5.168;2022-11-04T17:27:52;5.32;;;1.50;;
69744;SDS011;57015;50.120;-5.168;2022-11-04T17:30:18;7.95;;;1.80;;
69744;SDS011;57015;50.120;-5.168;2022-11-04T17:32:48;4.20;;;1.10;;
69744;SDS011;57015;50.120;-5.168;2022-11-04T17:35:14;7.60;;;1.50;;
69744;SDS011;57015;50.120;-5.168;2022-11-04T17:37:40;8.55;;;3.05;;
69744;SDS011;57015;50.120;-5.168;2022-11-04T17:40:07;6.73;;;1.60;;
69744;SDS011;57015;50.120;-5.168;2022-11-04T17:42:35;7.47;;;2.40;;
69744;SDS011;57015;50.120;-5.168;2022-11-04T17:45:19;6.20;;;1.88;;
69744;SDS011;57015;50.120;-5.168;2022-11-04T17:47:44;4.93;;;2.20;;
69744;SDS011;57015;50.120;-5.168;2022-11-04T17:50:10;6.00;;;2.20;;
69744;SDS011;57015;50.120;-5.168;2022-11-04T17:52:36;7.50;;;1.90;;
69744;SDS011;57015;50.120;-5.168;2022-11-04T17:55:02;8.15;;;1.98;;
69744;SDS011;57015;50.120;-5.168;2022-11-04T17:57:29;6.47;;;1.85;;
69744;SDS011;57015;50.120;-5.168;2022-11-04T17:59:54;5.83;;;1.67;;